sensor_id;sensor_type;location;lat;lon;timestamp;pressure;altitude;pressure_sealevel;temperature;humidity
77147;BME280;66121;52.584;9.694;2023-04-29T00:02:13;100605.66;;;11.77;98.12
77147;BME280;66121;52.584;9.694;2023-04-29T00:04:38;100611.22;;;11.80;98.22
77147;BME280;66121;52.584;9.694;2023-04-29T00:07:04;100603.31;;;11.75;98.12
77147;BME280;66121;52.584;9.694;2023-04-29T00:09:29;100610.41;;;11.80;98.52
77147;BME280;66121;52.584;9.694;2023-04-29T00:11:54;100615.94;;;11.69;98.52
77147;BME280;66121;52.584;9.694;2023-04-29T00:14:20;100613.56;;;11.75;98.11
77147;BME280;66121;52.584;9.694;2023-04-29T00:16:45;100612.34;;;11.65;98.75
77147;BME280;66121;52.584;9.694;2023-04-29T00:19:11;100606.41;;;11.63;98.79
77147;BME280;66121;52.584;9.694;2023-04-29T00:21:37;100614.72;;;11.63;98.75
77147;BME280;66121;52.584;9.694;2023-04-29T00:24:02;100619.06;;;11.64;99.26
77147;BME280;66121;52.584;9.694;2023-04-29T00:26:27;100621.03;;;11.67;99.09
77147;BME280;66121;52.584;9.694;2023-04-29T00:28:53;100610.38;;;11.58;99.56
77147;BME280;66121;52.584;9.694;2023-04-29T00:31:18;100621.44;;;11.65;99.21
77147;BME280;66121;52.584;9.694;2023-04-29T00:33:43;100623.81;;;11.63;99.69
77147;BME280;66121;52.584;9.694;2023-04-29T00:36:10;100613.13;;;11.65;99.21
77147;BME280;66121;52.584;9.694;2023-04-29T00:38:35;100628.56;;;11.67;99.32
77147;BME280;66121;52.584;9.694;2023-04-29T00:41:01;100622.22;;;11.62;98.79
77147;BME280;66121;52.584;9.694;2023-04-29T00:43:27;100636.03;;;11.62;99.36
77147;BME280;66121;52.584;9.694;2023-04-29T00:45:52;100639.16;;;11.50;99.80
77147;BME280;66121;52.584;9.694;2023-04-29T00:48:18;100628.09;;;11.43;100.00
77147;BME280;66121;52.584;9.694;2023-04-29T00:50:43;100641.91;;;11.43;100.00
77147;BME280;66121;52.584;9.694;2023-04-29T00:53:09;100642.69;;;11.40;99.59
77147;BME280;66121;52.584;9.694;2023-04-29T00:55:37;100643.44;;;11.34;100.00
77147;BME280;66121;52.584;9.694;2023-04-29T00:58:03;100641.47;;;11.38;99.27
77147;BME280;66121;52.584;9.694;2023-04-29T01:00:29;100654.06;;;11.28;99.58
77147;BME280;66121;52.584;9.694;2023-04-29T01:02:55;100639.03;;;11.19;100.00
77147;BME280;66121;52.584;9.694;2023-04-29T01:05:22;100655.66;;;11.26;100.00
77147;BME280;66121;52.584;9.694;2023-04-29T01:08:13;100657.97;;;11.20;100.00
77147;BME280;66121;52.584;9.694;2023-04-29T01:10:44;100673.78;;;11.27;99.65
77147;BME280;66121;52.584;9.694;2023-04-29T01:13:17;100671.06;;;11.30;99.93
77147;BME280;66121;52.584;9.694;2023-04-29T01:16:02;100688.78;;;11.26;100.00
77147;BME280;66121;52.584;9.694;2023-04-29T01:18:32;100679.31;;;11.23;99.71
77147;BME280;66121;52.584;9.694;2023-04-29T01:20:58;100673.75;;;11.16;99.52
77147;BME280;66121;52.584;9.694;2023-04-29T01:23:27;100689.09;;;11.10;99.63
77147;BME280;66121;52.584;9.694;2023-04-29T01:25:53;100696.59;;;11.06;100.00
77147;BME280;66121;52.584;9.694;2023-04-29T01:28:42;100697.31;;;10.96;100.00
77147;BME280;66121;52.584;9.694;2023-04-29T01:31:14;100697.63;;;10.87;100.00
77147;BME280;66121;52.584;9.694;2023-04-29T01:34:08;100699.19;;;10.85;100.00
77147;BME280;66121;52.584;9.694;2023-04-29T01:36:57;100705.47;;;10.82;100.00
77147;BME280;66121;52.584;9.694;2023-04-29T01:39:32;100706.31;;;10.86;99.94
77147;BME280;66121;52.584;9.694;2023-04-29T01:42:09;100703.91;;;10.84;99.90
77147;BME280;66121;52.584;9.694;2023-04-29T01:44:37;100705.47;;;10.78;99.63
77147;BME280;66121;52.584;9.694;2023-04-29T01:47:02;100700.78;;;10.86;99.46
77147;BME280;66121;52.584;9.694;2023-04-29T01:49:29;100722.50;;;10.91;99.82
77147;BME280;66121;52.584;9.694;2023-04-29T01:51:54;100722.13;;;10.89;99.36
77147;BME280;66121;52.584;9.694;2023-04-29T01:54:20;100727.19;;;10.83;99.55
77147;BME280;66121;52.584;9.694;2023-04-29T01:56:47;100737.84;;;10.81;99.87
77147;BME280;66121;52.584;9.694;2023-04-29T01:59:12;100732.53;;;10.59;99.59
77147;BME280;66121;52.584;9.694;2023-04-29T02:01:37;100739.91;;;10.48;100.00
77147;BME280;66121;52.584;9.694;2023-04-29T02:04:03;100752.19;;;10.54;100.00
77147;BME280;66121;52.584;9.694;2023-04-29T02:06:28;100752.09;;;10.43;100.00
77147;BME280;66121;52.584;9.694;2023-04-29T02:08:56;100754.91;;;10.50;100.00
77147;BME280;66121;52.584;9.694;2023-04-29T02:11:21;100752.88;;;10.44;100.00
77147;BME280;66121;52.584;9.694;2023-04-29T02:13:47;100755.66;;;10.47;100.00
77147;BME280;66121;52.584;9.694;2023-04-29T02:16:13;100770.25;;;10.44;100.00
77147;BME280;66121;52.584;9.694;2023-04-29T02:18:39;100765.13;;;10.46;99.69
77147;BME280;66121;52.584;9.694;2023-04-29T02:21:05;100776.91;;;10.43;98.81
77147;BME280;66121;52.584;9.694;2023-04-29T02:23:31;100779.28;;;10.41;99.63
77147;BME280;66121;52.584;9.694;2023-04-29T02:25:56;100767.75;;;10.32;99.27
77147;BME280;66121;52.584;9.694;2023-04-29T02:28:21;100773.38;;;10.43;99.04
77147;BME280;66121;52.584;9.694;2023-04-29T02:30:49;100771.34;;;10.36;98.61
77147;BME280;66121;52.584;9.694;2023-04-29T02:33:14;100776.75;;;10.25;100.00
77147;BME280;66121;52.584;9.694;2023-04-29T02:35:40;100793.75;;;10.34;98.93
77147;BME280;66121;52.584;9.694;2023-04-29T02:38:06;100784.22;;;10.25;99.45
77147;BME280;66121;52.584;9.694;2023-04-29T02:40:31;100795.63;;;10.23;98.27
77147;BME280;66121;52.584;9.694;2023-04-29T02:42:56;100805.53;;;10.28;98.50
77147;BME280;66121;52.584;9.694;2023-04-29T02:45:22;100805.06;;;10.22;98.10
77147;BME280;66121;52.584;9.694;2023-04-29T02:47:47;100808.50;;;10.12;99.50
77147;BME280;66121;52.584;9.694;2023-04-29T02:50:12;100797.38;;;10.05;99.35
77147;BME280;66121;52.584;9.694;2023-04-29T02:52:38;100809.66;;;10.11;98.99
77147;BME280;66121;52.584;9.694;2023-04-29T02:55:06;100815.13;;;10.08;99.09
77147;BME280;66121;52.584;9.694;2023-04-29T02:57:31;100808.38;;;10.02;99.14
77147;BME280;66121;52.584;9.694;2023-04-29T02:59:57;100821.34;;;10.01;99.60
77147;BME280;66121;52.584;9.694;2023-04-29T03:02:23;100810.34;;;10.05;99.16
77147;BME280;66121;52.584;9.694;2023-04-29T03:04:48;100821.94;;;10.17;98.91
77147;BME280;66121;52.584;9.694;2023-04-29T03:07:14;100817.22;;;10.18;98.98
77147;BME280;66121;52.584;9.694;2023-04-29T03:09:41;100824.91;;;10.02;98.67
77147;BME280;66121;52.584;9.694;2023-04-29T03:12:06;100817.06;;;10.04;99.02
77147;BME280;66121;52.584;9.694;2023-04-29T03:14:32;100820.47;;;9.94;98.88
77147;BME280;66121;52.584;9.694;2023-04-29T03:16:57;100832.75;;;10.00;98.84
77147;BME280;66121;52.584;9.694;2023-04-29T03:19:22;100826.66;;;9.87;99.48
77147;BME280;66121;52.584;9.694;2023-04-29T03:21:48;100828.34;;;9.92;99.86
77147;BME280;66121;52.584;9.694;2023-04-29T03:24:14;100831.53;;;9.97;99.03
77147;BME280;66121;52.584;9.694;2023-04-29T03:26:40;100830.63;;;9.90;98.07
77147;BME280;66121;52.584;9.694;2023-04-29T03:29:07;100831.44;;;9.90;98.60
77147;BME280;66121;52.584;9.694;2023-04-29T03:31:32;100837.00;;;9.94;98.58
77147;BME280;66121;52.584;9.694;2023-04-29T03:33:58;100839.69;;;9.87;98.38
77147;BME280;66121;52.584;9.694;2023-04-29T03:36:23;100829.78;;;9.82;98.47
77147;BME280;66121;52.584;9.694;2023-04-29T03:38:49;100841.22;;;9.84;99.49
77147;BME280;66121;52.584;9.694;2023-04-29T03:41:14;100839.13;;;9.74;98.45
77147;BME280;66121;52.584;9.694;2023-04-29T03:43:39;100846.31;;;9.82;98.77
77147;BME280;66121;52.584;9.694;2023-04-29T03:46:05;100850.22;;;9.81;98.26
77147;BME280;66121;52.584;9.694;2023-04-29T03:48:30;100849.44;;;9.81;98.69
77147;BME280;66121;52.584;9.694;2023-04-29T03:50:55;100864.41;;;9.80;98.65
77147;BME280;66121;52.584;9.694;2023-04-29T03:53:21;100863.19;;;9.77;98.98
77147;BME280;66121;52.584;9.694;2023-04-29T03:55:46;100859.22;;;9.75;98.57
77147;BME280;66121;52.584;9.694;2023-04-29T03:58:12;100872.75;;;9.87;98.20
77147;BME280;66121;52.584;9.694;2023-04-29T04:00:38;100864.00;;;9.81;97.94
77147;BME280;66121;52.584;9.694;2023-04-29T04:03:04;100873.59;;;9.91;98.06
77147;BME280;66121;52.584;9.694;2023-04-29T04:05:29;100875.94;;;9.89;98.14
77147;BME280;66121;52.584;9.694;2023-04-29T04:07:54;100885.75;;;9.86;98.35
77147;BME280;66121;52.584;9.694;2023-04-29T04:10:20;100886.97;;;9.92;97.86
77147;BME280;66121;52.584;9.694;2023-04-29T04:12:45;100893.94;;;9.83;97.00
77147;BME280;66121;52.584;9.694;2023-04-29T04:15:11;100895.94;;;9.82;96.95
77147;BME280;66121;52.584;9.694;2023-04-29T04:17:37;100892.13;;;9.64;97.88
77147;BME280;66121;52.584;9.694;2023-04-29T04:20:03;100898.75;;;9.59;97.42
77147;BME280;66121;52.584;9.694;2023-04-29T04:22:28;100899.91;;;9.58;97.20
77147;BME280;66121;52.584;9.694;2023-04-29T04:24:54;100912.84;;;9.54;97.70
77147;BME280;66121;52.584;9.694;2023-04-29T04:27:20;100915.09;;;9.49;97.83
77147;BME280;66121;52.584;9.694;2023-04-29T04:29:45;100927.34;;;9.51;98.36
77147;BME280;66121;52.584;9.694;2023-04-29T04:32:10;100931.16;;;9.43;97.79
77147;BME280;66121;52.584;9.694;2023-04-29T04:34:36;100928.00;;;9.45;98.49
77147;BME280;66121;52.584;9.694;2023-04-29T04:37:03;100926.47;;;9.47;97.92
77147;BME280;66121;52.584;9.694;2023-04-29T04:39:29;100938.72;;;9.50;97.75
77147;BME280;66121;52.584;9.694;2023-04-29T04:41:54;100952.38;;;9.43;98.21
77147;BME280;66121;52.584;9.694;2023-04-29T04:44:19;100926.63;;;9.32;97.26
77147;BME280;66121;52.584;9.694;2023-04-29T04:46:44;100941.22;;;9.32;97.85
77147;BME280;66121;52.584;9.694;2023-04-29T04:49:10;100949.03;;;9.30;97.93
77147;BME280;66121;52.584;9.694;2023-04-29T04:51:35;100958.50;;;9.33;96.95
77147;BME280;66121;52.584;9.694;2023-04-29T04:54:00;100955.28;;;9.27;97.85
77147;BME280;66121;52.584;9.694;2023-04-29T04:56:26;100956.84;;;9.28;97.25
77147;BME280;66121;52.584;9.694;2023-04-29T04:58:51;100954.97;;;9.32;97.53
77147;BME280;66121;52.584;9.694;2023-04-29T05:01:16;100972.38;;;9.40;97.50
77147;BME280;66121;52.584;9.694;2023-04-29T05:03:41;100970.50;;;9.44;97.16
77147;BME280;66121;52.584;9.694;2023-04-29T05:06:07;100968.44;;;9.37;97.25
77147;BME280;66121;52.584;9.694;2023-04-29T05:08:32;100975.78;;;9.30;97.60
77147;BME280;66121;52.584;9.694;2023-04-29T05:10:57;100983.53;;;9.47;97.89
77147;BME280;66121;52.584;9.694;2023-04-29T05:13:23;100977.53;;;9.41;97.55
77147;BME280;66121;52.584;9.694;2023-04-29T05:15:49;100988.91;;;9.40;97.19
77147;BME280;66121;52.584;9.694;2023-04-29T05:18:15;100995.63;;;9.42;97.12
77147;BME280;66121;52.584;9.694;2023-04-29T05:20:40;101006.34;;;9.47;97.31
77147;BME280;66121;52.584;9.694;2023-04-29T05:23:06;100996.09;;;9.44;97.66
77147;BME280;66121;52.584;9.694;2023-04-29T05:25:31;101000.00;;;9.43;97.96
77147;BME280;66121;52.584;9.694;2023-04-29T05:27:56;100995.59;;;9.39;97.83
77147;BME280;66121;52.584;9.694;2023-04-29T05:30:22;101005.44;;;9.40;97.88
77147;BME280;66121;52.584;9.694;2023-04-29T05:32:47;101006.34;;;9.47;97.13
77147;BME280;66121;52.584;9.694;2023-04-29T05:35:13;101005.75;;;9.57;97.77
77147;BME280;66121;52.584;9.694;2023-04-29T05:37:38;101017.88;;;9.53;97.40
77147;BME280;66121;52.584;9.694;2023-04-29T05:40:04;101008.13;;;9.59;97.76
77147;BME280;66121;52.584;9.694;2023-04-29T05:42:30;101018.91;;;9.67;96.22
77147;BME280;66121;52.584;9.694;2023-04-29T05:44:55;101025.91;;;9.61;97.37
77147;BME280;66121;52.584;9.694;2023-04-29T05:47:20;101023.19;;;9.65;97.33
77147;BME280;66121;52.584;9.694;2023-04-29T05:49:46;101023.31;;;9.72;97.44
77147;BME280;66121;52.584;9.694;2023-04-29T05:52:12;101024.59;;;9.78;96.10
77147;BME280;66121;52.584;9.694;2023-04-29T05:54:37;101043.97;;;9.85;96.29
77147;BME280;66121;52.584;9.694;2023-04-29T05:57:03;101049.38;;;9.78;96.11
77147;BME280;66121;52.584;9.694;2023-04-29T05:59:29;101050.06;;;9.71;96.19
77147;BME280;66121;52.584;9.694;2023-04-29T06:01:55;101040.28;;;9.74;95.17
77147;BME280;66121;52.584;9.694;2023-04-29T06:04:20;101056.31;;;9.68;96.03
77147;BME280;66121;52.584;9.694;2023-04-29T06:06:46;101062.25;;;9.70;96.41
77147;BME280;66121;52.584;9.694;2023-04-29T06:09:12;101051.22;;;9.70;96.50
77147;BME280;66121;52.584;9.694;2023-04-29T06:11:39;101067.16;;;9.58;96.38
77147;BME280;66121;52.584;9.694;2023-04-29T06:14:04;101073.66;;;9.69;95.77
77147;BME280;66121;52.584;9.694;2023-04-29T06:16:30;101081.63;;;9.74;96.33
77147;BME280;66121;52.584;9.694;2023-04-29T06:18:56;101078.56;;;9.79;95.63
77147;BME280;66121;52.584;9.694;2023-04-29T06:21:21;101081.84;;;9.88;95.74
77147;BME280;66121;52.584;9.694;2023-04-29T06:23:46;101087.84;;;9.94;94.74
77147;BME280;66121;52.584;9.694;2023-04-29T06:26:12;101081.22;;;9.98;94.31
77147;BME280;66121;52.584;9.694;2023-04-29T06:28:37;101099.81;;;10.27;94.29
77147;BME280;66121;52.584;9.694;2023-04-29T06:31:02;101101.72;;;10.50;93.79
77147;BME280;66121;52.584;9.694;2023-04-29T06:33:28;101097.34;;;10.45;92.66
77147;BME280;66121;52.584;9.694;2023-04-29T06:35:54;101113.56;;;10.50;92.74
77147;BME280;66121;52.584;9.694;2023-04-29T06:38:19;101106.56;;;10.56;92.50
77147;BME280;66121;52.584;9.694;2023-04-29T06:40:45;101111.09;;;10.42;91.58
77147;BME280;66121;52.584;9.694;2023-04-29T06:43:10;101109.31;;;10.30;92.53
77147;BME280;66121;52.584;9.694;2023-04-29T06:45:35;101117.03;;;10.44;93.36
77147;BME280;66121;52.584;9.694;2023-04-29T06:48:01;101122.00;;;10.61;92.29
77147;BME280;66121;52.584;9.694;2023-04-29T06:50:27;101126.59;;;10.79;92.33
77147;BME280;66121;52.584;9.694;2023-04-29T06:52:52;101127.47;;;10.87;90.05
77147;BME280;66121;52.584;9.694;2023-04-29T06:55:18;101127.59;;;10.64;90.14
77147;BME280;66121;52.584;9.694;2023-04-29T06:57:43;101138.75;;;10.75;90.67
77147;BME280;66121;52.584;9.694;2023-04-29T07:00:09;101136.44;;;10.77;89.82
77147;BME280;66121;52.584;9.694;2023-04-29T07:02:34;101145.81;;;11.02;90.44
77147;BME280;66121;52.584;9.694;2023-04-29T07:05:01;101151.22;;;11.21;88.30
77147;BME280;66121;52.584;9.694;2023-04-29T07:07:26;101153.53;;;11.49;88.04
77147;BME280;66121;52.584;9.694;2023-04-29T07:09:52;101160.06;;;11.34;86.48
77147;BME280;66121;52.584;9.694;2023-04-29T07:12:18;101165.38;;;11.16;86.88
77147;BME280;66121;52.584;9.694;2023-04-29T07:14:43;101161.84;;;11.19;87.94
77147;BME280;66121;52.584;9.694;2023-04-29T07:17:09;101183.22;;;11.89;84.60
77147;BME280;66121;52.584;9.694;2023-04-29T07:19:34;101186.69;;;11.49;84.88
77147;BME280;66121;52.584;9.694;2023-04-29T07:22:00;101191.13;;;11.90;83.90
77147;BME280;66121;52.584;9.694;2023-04-29T07:24:25;101191.63;;;11.66;84.70
77147;BME280;66121;52.584;9.694;2023-04-29T07:26:50;101188.13;;;11.69;85.11
77147;BME280;66121;52.584;9.694;2023-04-29T07:29:16;101209.13;;;11.74;84.57
77147;BME280;66121;52.584;9.694;2023-04-29T07:31:41;101202.47;;;11.82;84.89
77147;BME280;66121;52.584;9.694;2023-04-29T07:34:06;101205.22;;;12.18;84.32
77147;BME280;66121;52.584;9.694;2023-04-29T07:36:32;101209.84;;;12.07;83.67
77147;BME280;66121;52.584;9.694;2023-04-29T07:38:57;101213.25;;;12.34;81.43
77147;BME280;66121;52.584;9.694;2023-04-29T07:41:23;101213.59;;;12.25;79.87
77147;BME280;66121;52.584;9.694;2023-04-29T07:43:48;101224.53;;;13.06;78.68
77147;BME280;66121;52.584;9.694;2023-04-29T07:46:14;101228.25;;;13.38;77.05
77147;BME280;66121;52.584;9.694;2023-04-29T07:48:42;101230.22;;;13.41;77.34
77147;BME280;66121;52.584;9.694;2023-04-29T07:51:12;101229.56;;;13.76;77.69
77147;BME280;66121;52.584;9.694;2023-04-29T07:53:38;101231.59;;;13.90;77.27
77147;BME280;66121;52.584;9.694;2023-04-29T07:56:07;101216.97;;;14.07;76.74
77147;BME280;66121;52.584;9.694;2023-04-29T07:58:33;101229.28;;;14.23;78.05
77147;BME280;66121;52.584;9.694;2023-04-29T08:01:06;101230.47;;;14.05;76.66
77147;BME280;66121;52.584;9.694;2023-04-29T08:03:31;101242.69;;;13.86;75.07
77147;BME280;66121;52.584;9.694;2023-04-29T08:06:01;101243.50;;;13.94;75.83
77147;BME280;66121;52.584;9.694;2023-04-29T08:08:27;101246.50;;;13.46;72.70
77147;BME280;66121;52.584;9.694;2023-04-29T08:10:52;101264.31;;;13.45;73.80
77147;BME280;66121;52.584;9.694;2023-04-29T08:13:18;101259.56;;;13.42;75.30
77147;BME280;66121;52.584;9.694;2023-04-29T08:15:43;101255.97;;;13.38;74.64
77147;BME280;66121;52.584;9.694;2023-04-29T08:18:08;101261.53;;;13.42;74.16
77147;BME280;66121;52.584;9.694;2023-04-29T08:20:33;101260.31;;;13.36;73.71
77147;BME280;66121;52.584;9.694;2023-04-29T08:22:59;101265.97;;;13.53;72.27
77147;BME280;66121;52.584;9.694;2023-04-29T08:25:27;101269.53;;;13.61;74.44
77147;BME280;66121;52.584;9.694;2023-04-29T08:27:53;101269.47;;;13.47;73.89
77147;BME280;66121;52.584;9.694;2023-04-29T08:30:18;101276.59;;;13.44;75.88
77147;BME280;66121;52.584;9.694;2023-04-29T08:32:44;101281.81;;;13.64;76.88
77147;BME280;66121;52.584;9.694;2023-04-29T08:35:09;101277.47;;;13.66;74.61
77147;BME280;66121;52.584;9.694;2023-04-29T08:37:34;101278.59;;;13.47;74.58
77147;BME280;66121;52.584;9.694;2023-04-29T08:40:00;101282.28;;;13.80;75.25
77147;BME280;66121;52.584;9.694;2023-04-29T08:42:33;101296.53;;;13.75;72.60
77147;BME280;66121;52.584;9.694;2023-04-29T08:44:59;101290.59;;;13.76;72.06
77147;BME280;66121;52.584;9.694;2023-04-29T08:47:29;101296.22;;;13.90;71.96
77147;BME280;66121;52.584;9.694;2023-04-29T08:49:55;101292.66;;;13.93;74.23
77147;BME280;66121;52.584;9.694;2023-04-29T08:52:20;101306.63;;;14.18;72.20
77147;BME280;66121;52.584;9.694;2023-04-29T08:54:45;101297.56;;;14.39;73.22
77147;BME280;66121;52.584;9.694;2023-04-29T08:57:11;101298.75;;;14.38;69.90
77147;BME280;66121;52.584;9.694;2023-04-29T08:59:37;101307.50;;;14.43;73.02
77147;BME280;66121;52.584;9.694;2023-04-29T09:02:05;101307.47;;;14.40;72.73
77147;BME280;66121;52.584;9.694;2023-04-29T09:04:40;101314.66;;;14.69;72.41
77147;BME280;66121;52.584;9.694;2023-04-29T09:07:10;101321.78;;;14.56;71.98
77147;BME280;66121;52.584;9.694;2023-04-29T09:09:38;101322.19;;;14.65;73.14
77147;BME280;66121;52.584;9.694;2023-04-29T09:12:04;101326.84;;;14.26;73.95
77147;BME280;66121;52.584;9.694;2023-04-29T09:14:30;101327.09;;;13.89;75.04
77147;BME280;66121;52.584;9.694;2023-04-29T09:16:58;101319.44;;;13.61;75.25
77147;BME280;66121;52.584;9.694;2023-04-29T09:19:34;101331.19;;;13.37;77.03
77147;BME280;66121;52.584;9.694;2023-04-29T09:22:01;101331.22;;;13.44;75.20
77147;BME280;66121;52.584;9.694;2023-04-29T09:24:28;101324.53;;;14.42;71.84
77147;BME280;66121;52.584;9.694;2023-04-29T09:26:54;101332.09;;;14.66;71.97
77147;BME280;66121;52.584;9.694;2023-04-29T09:29:21;101343.25;;;14.91;72.21
77147;BME280;66121;52.584;9.694;2023-04-29T09:31:46;101343.22;;;15.51;71.46
77147;BME280;66121;52.584;9.694;2023-04-29T09:34:12;101338.28;;;16.04;67.46
77147;BME280;66121;52.584;9.694;2023-04-29T09:36:51;101338.47;;;16.45;64.59
77147;BME280;66121;52.584;9.694;2023-04-29T09:39:22;101332.09;;;17.03;62.81
77147;BME280;66121;52.584;9.694;2023-04-29T09:44:19;101349.41;;;17.72;62.66
77147;BME280;66121;52.584;9.694;2023-04-29T09:46:59;101345.75;;;17.34;61.40
77147;BME280;66121;52.584;9.694;2023-04-29T09:49:33;101351.09;;;17.18;62.50
77147;BME280;66121;52.584;9.694;2023-04-29T09:52:10;101359.38;;;18.03;58.69
77147;BME280;66121;52.584;9.694;2023-04-29T09:54:38;101352.91;;;17.35;57.43
77147;BME280;66121;52.584;9.694;2023-04-29T09:57:05;101355.97;;;17.48;58.75
77147;BME280;66121;52.584;9.694;2023-04-29T09:59:36;101366.81;;;16.29;60.05
77147;BME280;66121;52.584;9.694;2023-04-29T10:02:20;101357.84;;;15.86;61.84
77147;BME280;66121;52.584;9.694;2023-04-29T10:04:53;101361.94;;;16.54;61.46
77147;BME280;66121;52.584;9.694;2023-04-29T10:07:18;101364.97;;;16.74;59.26
77147;BME280;66121;52.584;9.694;2023-04-29T10:09:45;101355.72;;;16.22;58.86
77147;BME280;66121;52.584;9.694;2023-04-29T10:12:18;101364.94;;;15.98;61.39
77147;BME280;66121;52.584;9.694;2023-04-29T10:14:57;101367.47;;;16.58;59.88
77147;BME280;66121;52.584;9.694;2023-04-29T10:17:42;101363.09;;;17.12;59.76
77147;BME280;66121;52.584;9.694;2023-04-29T10:20:14;101360.09;;;16.16;58.16
77147;BME280;66121;52.584;9.694;2023-04-29T10:22:48;101377.28;;;15.93;59.80
77147;BME280;66121;52.584;9.694;2023-04-29T10:25:18;101368.63;;;15.70;59.77
77147;BME280;66121;52.584;9.694;2023-04-29T10:27:45;101365.78;;;15.88;59.17
77147;BME280;66121;52.584;9.694;2023-04-29T10:30:11;101375.75;;;17.23;55.86
77147;BME280;66121;52.584;9.694;2023-04-29T10:32:39;101369.47;;;17.12;55.43
77147;BME280;66121;52.584;9.694;2023-04-29T10:35:09;101365.03;;;16.63;56.30
77147;BME280;66121;52.584;9.694;2023-04-29T10:37:36;101368.69;;;16.46;58.28
77147;BME280;66121;52.584;9.694;2023-04-29T10:40:10;101370.34;;;16.33;58.52
77147;BME280;66121;52.584;9.694;2023-04-29T10:42:46;101374.06;;;16.05;59.35
77147;BME280;66121;52.584;9.694;2023-04-29T10:45:26;101373.41;;;15.70;58.57
77147;BME280;66121;52.584;9.694;2023-04-29T10:53:11;101370.84;;;16.18;56.59
77147;BME280;66121;52.584;9.694;2023-04-29T10:55:37;101383.22;;;16.06;59.20
77147;BME280;66121;52.584;9.694;2023-04-29T10:58:03;101377.72;;;15.81;58.20
77147;BME280;66121;52.584;9.694;2023-04-29T11:00:31;101378.09;;;15.94;59.67
77147;BME280;66121;52.584;9.694;2023-04-29T11:02:58;101389.75;;;17.13;59.11
77147;BME280;66121;52.584;9.694;2023-04-29T11:05:35;101385.84;;;17.51;55.82
77147;BME280;66121;52.584;9.694;2023-04-29T11:08:10;101375.88;;;17.06;57.21
77147;BME280;66121;52.584;9.694;2023-04-29T11:10:39;101381.09;;;17.48;52.33
77147;BME280;66121;52.584;9.694;2023-04-29T11:13:28;101387.91;;;17.47;55.00
77147;BME280;66121;52.584;9.694;2023-04-29T11:16:08;101379.91;;;18.20;55.28
77147;BME280;66121;52.584;9.694;2023-04-29T11:18:35;101385.59;;;18.47;48.86
77147;BME280;66121;52.584;9.694;2023-04-29T11:23:36;101378.72;;;17.47;51.51
77147;BME280;66121;52.584;9.694;2023-04-29T11:26:02;101373.56;;;17.86;54.27
77147;BME280;66121;52.584;9.694;2023-04-29T11:28:29;101382.03;;;17.75;54.31
77147;BME280;66121;52.584;9.694;2023-04-29T11:30:58;101379.91;;;17.05;56.28
77147;BME280;66121;52.584;9.694;2023-04-29T11:33:25;101377.19;;;17.42;54.37
77147;BME280;66121;52.584;9.694;2023-04-29T11:35:53;101390.78;;;17.36;51.91
77147;BME280;66121;52.584;9.694;2023-04-29T11:38:28;101388.50;;;17.21;54.25
77147;BME280;66121;52.584;9.694;2023-04-29T11:40:55;101377.88;;;17.05;56.14
77147;BME280;66121;52.584;9.694;2023-04-29T11:43:22;101390.56;;;17.13;54.66
77147;BME280;66121;52.584;9.694;2023-04-29T11:45:48;101388.03;;;16.78;56.13
77147;BME280;66121;52.584;9.694;2023-04-29T11:50:44;101399.50;;;18.50;54.64
77147;BME280;66121;52.584;9.694;2023-04-29T11:53:10;101401.22;;;18.98;49.35
77147;BME280;66121;52.584;9.694;2023-04-29T11:55:36;101402.53;;;17.99;50.43
77147;BME280;66121;52.584;9.694;2023-04-29T11:58:03;101401.00;;;17.94;50.90
77147;BME280;66121;52.584;9.694;2023-04-29T12:00:29;101403.69;;;17.20;53.71
77147;BME280;66121;52.584;9.694;2023-04-29T12:02:55;101402.88;;;16.50;53.99
77147;BME280;66121;52.584;9.694;2023-04-29T12:05:24;101411.38;;;16.29;55.44
77147;BME280;66121;52.584;9.694;2023-04-29T12:07:49;101412.97;;;16.23;56.68
77147;BME280;66121;52.584;9.694;2023-04-29T12:10:15;101409.44;;;16.08;56.91
77147;BME280;66121;52.584;9.694;2023-04-29T12:12:41;101419.84;;;15.97;55.77
77147;BME280;66121;52.584;9.694;2023-04-29T12:15:08;101418.22;;;16.03;55.25
77147;BME280;66121;52.584;9.694;2023-04-29T12:17:34;101412.69;;;16.87;53.71
77147;BME280;66121;52.584;9.694;2023-04-29T12:20:00;101414.41;;;16.66;53.91
77147;BME280;66121;52.584;9.694;2023-04-29T12:22:32;101411.78;;;16.21;54.61
77147;BME280;66121;52.584;9.694;2023-04-29T12:24:57;101410.63;;;16.15;56.13
77147;BME280;66121;52.584;9.694;2023-04-29T12:27:23;101422.97;;;16.06;55.57
77147;BME280;66121;52.584;9.694;2023-04-29T12:29:51;101415.91;;;15.77;56.96
77147;BME280;66121;52.584;9.694;2023-04-29T12:32:16;101426.22;;;15.87;57.53
77147;BME280;66121;52.584;9.694;2023-04-29T12:34:44;101422.97;;;16.06;58.06
77147;BME280;66121;52.584;9.694;2023-04-29T12:37:10;101432.97;;;15.97;57.40
77147;BME280;66121;52.584;9.694;2023-04-29T12:39:37;101417.63;;;16.51;55.59
77147;BME280;66121;52.584;9.694;2023-04-29T12:42:02;101431.09;;;16.70;56.42
77147;BME280;66121;52.584;9.694;2023-04-29T12:44:37;101440.03;;;16.30;58.11
77147;BME280;66121;52.584;9.694;2023-04-29T12:47:09;101438.16;;;15.74;55.52
77147;BME280;66121;52.584;9.694;2023-04-29T12:49:52;101444.94;;;15.69;55.91
77147;BME280;66121;52.584;9.694;2023-04-29T12:52:21;101449.72;;;15.72;56.81
77147;BME280;66121;52.584;9.694;2023-04-29T12:54:46;101441.75;;;15.78;56.25
77147;BME280;66121;52.584;9.694;2023-04-29T12:57:12;101433.31;;;17.00;55.23
77147;BME280;66121;52.584;9.694;2023-04-29T12:59:38;101430.34;;;18.10;55.55
77147;BME280;66121;52.584;9.694;2023-04-29T13:02:04;101436.66;;;18.78;51.92
77147;BME280;66121;52.584;9.694;2023-04-29T13:04:30;101429.97;;;18.38;49.13
77147;BME280;66121;52.584;9.694;2023-04-29T13:06:55;101428.56;;;17.45;51.75